Villa de Puerto Real, Puerto Rico
Current Conditions -  °F | °C
As of 2:53 AM on Saturday 20 Dec 2014 (Local Time) from TJNR Reporting Station
Clear Clear  
Wind Chill: 77°   Ceiling: Unl
Heat Index: 79°   Visibility: 10mi
Dew Point: 67°   Wind: 9mph
Humidity: 71%   Direction: 50°NE
Pressure: 29.99"   Gusts: NA
Location:  18.3304°N, 65.6573°W
Report Text: TJNR 200653Z AUTO 05008KT 10SM CLR 25/19 A2999 RMK AO2 SLP154 T02500194
Loading
Personal Weather Stations






























Interactive Weather Map New forecast layout! Learn more

10-Day Weather Forecast

Advertisements
Track Severe Weather on mobile